Emma Maersk — OYGR2 — position and weather

sailwx.info

Track history (hours):
 
Tides and Currents Weather Stations Pressure Air Temp Water Temp Dewpoint Dewpoint Depression Visibility Wind Speed Wind Dir Waves Ship Positions

Emma Maersk

Last reported at 2018-Jul-10 14:57 UTC. Time now 2018-Jul-17 07:37 UTC.
Position N 23°08' E 117°16'.

Length 399 m; draft 12.9 m.

Type: Ship (hazmat cat D). MMSI: 220417000.

Date/timePositionNaut miles runAvg speedWind from/ knotsBaromVisibWave heightAir tempDewpointWater temp
2018-Jul-10 14:57N 23°08' E 117°16'711.1
2018-Jul-10 14:19N 23°13' E 117°22'411.0
2018-Jul-10 14:00N 23°15' E 117°25'611.2
2018-Jul-10 13:30N 23°19' E 117°29'511.0
2018-Jul-10 13:00N 23°23' E 117°34'511.0
2018-Jul-10 12:31N 23°26' E 117°38'510.9
2018-Jul-10 12:01N 23°30' E 117°42'510.3
2018-Jul-10 11:30N 23°34' E 117°46'510.3
2018-Jul-10 11:01N 23°38' E 117°50'510.5
2018-Jul-10 10:30N 23°41' E 117°54'510.7
2018-Jul-10 10:00N 23°45' E 117°58'510.8
2018-Jul-10 09:31N 23°49' E 118°02'510.8
2018-Jul-10 09:01N 23°53' E 118°06'510.7
2018-Jul-10 08:31N 23°57' E 118°10'611.3
2018-Jul-10 08:00N 24°01' E 118°14'611.9
2018-Jul-10 07:31N 24°06' E 118°18'611.6
2018-Jul-10 07:00N 24°12' E 118°18'714.1
2018-Jul-10 06:31N 24°17' E 118°13'714.0
2018-Jul-10 06:01N 24°22' E 118°08'611.0
2018-Jul-10 05:31N 24°26' E 118°03'2 2.9
2018-Jul-10 04:58N 24°26' E 118°02'0 0.0
2018-Jul-10 04:28N 24°26' E 118°02'0 0.0
2018-Jul-10 03:58N 24°26' E 118°02'0 0.0
2018-Jul-10 03:28N 24°26' E 118°02'0 0.0
2018-Jul-10 02:58N 24°26' E 118°02'0 0.0
2018-Jul-10 02:28N 24°26' E 118°02'0 0.0
2018-Jul-10 01:58N 24°26' E 118°02'0 0.0
2018-Jul-10 01:25N 24°26' E 118°02'0 0.0
2018-Jul-10 00:58N 24°26' E 118°02'0 0.0
2018-Jul-10 00:28N 24°26' E 118°02'0 0.0
2018-Jul-09 23:58N 24°26' E 118°02'0 0.0
2018-Jul-09 23:28N 24°26' E 118°02'0 0.0
2018-Jul-09 22:58N 24°26' E 118°02'0 0.0
2018-Jul-09 22:28N 24°26' E 118°02'0 0.0
2018-Jul-09 21:58N 24°26' E 118°02'0 0.0
2018-Jul-09 21:28N 24°26' E 118°02'0 0.0
2018-Jul-09 20:58N 24°26' E 118°02'0 0.0
2018-Jul-09 20:28N 24°26' E 118°02'0 0.0
2018-Jul-09 19:58N 24°26' E 118°02'0 0.0
2018-Jul-09 19:28N 24°26' E 118°02'0 0.0
2018-Jul-09 18:58N 24°26' E 118°02'0 0.0
2018-Jul-09 18:28N 24°26' E 118°02'0 0.0
2018-Jul-09 17:58N 24°26' E 118°02'0 0.0
2018-Jul-09 17:25N 24°26' E 118°02'0 0.0
2018-Jul-09 16:58N 24°26' E 118°02'0 0.0
2018-Jul-09 16:28N 24°26' E 118°02'0 0.0
2018-Jul-09 15:58N 24°26' E 118°02'0 0.0
2018-Jul-09 15:28N 24°26' E 118°02'0 0.0
2018-Jul-09 14:58N 24°26' E 118°02'0 0.0
2018-Jul-09 14:28N 24°26' E 118°02'0 0.0
2018-Jul-09 13:58N 24°26' E 118°02'0 0.0
2018-Jul-09 13:28N 24°26' E 118°02'0 0.0
2018-Jul-09 12:58N 24°26' E 118°02'0 0.0
2018-Jul-09 12:28N 24°26' E 118°02'0 0.0
2018-Jul-09 11:58N 24°26' E 118°02'0 0.6
2018-Jul-09 11:31N 24°26' E 118°02'4 7.2
2018-Jul-09 11:00N 24°25' E 118°05'5 9.7
2018-Jul-09 10:31N 24°21' E 118°09'815.0
2018-Jul-09 10:00N 24°16' E 118°15'612.7
2018-Jul-09 09:30N 24°13' E 118°21'714.5
2018-Jul-09 09:00N 24°13' E 118°29'715.0
2018-Jul-09 08:30N 24°14' E 118°37'815.8
2018-Jul-09 08:00N 24°17' E 118°45'815.9
2018-Jul-09 07:30N 24°20' E 118°53'815.2
2018-Jul-09 07:00N 24°23' E 119°01'714.9
2018-Jul-09 06:30N 24°26' E 119°08'915.0
2018-Jul-09 05:53N 24°31' E 119°17'615.2
2018-Jul-09 05:28N 24°36' E 119°22'814.8
2018-Jul-09 04:55N 24°41' E 119°28'  
2018-Jul-02 05:08N 36°00' E 120°12'5 0.7
2018-Jul-01 22:04N 36°02' E 120°18'110.6
2018-Jul-01 21:58N 36°02' E 120°17'  
Track history (hours):
 
Tides and Currents Weather Stations Pressure Air Temp Water Temp Dewpoint Dewpoint Depression Visibility Wind Speed Wind Dir Waves Ship Positions

Emma Maersk

Last reported at 2018-Jul-10 14:57 UTC. Time now 2018-Jul-17 07:37 UTC.
Position N 23°08' E 117°16'.

Length 399 m; draft 12.9 m.

Type: Ship (hazmat cat D). MMSI: 220417000.

Date/timePositionNaut miles runAvg speedWind from/ knotsBaromVisibWave heightAir tempDewpointWater temp
2018-Jul-10 14:57N 23°08' E 117°16'711.1
2018-Jul-10 14:19N 23°13' E 117°22'411.0
2018-Jul-10 14:00N 23°15' E 117°25'611.2
2018-Jul-10 13:30N 23°19' E 117°29'511.0
2018-Jul-10 13:00N 23°23' E 117°34'511.0
2018-Jul-10 12:31N 23°26' E 117°38'510.9
2018-Jul-10 12:01N 23°30' E 117°42'510.3
2018-Jul-10 11:30N 23°34' E 117°46'510.3
2018-Jul-10 11:01N 23°38' E 117°50'510.5
2018-Jul-10 10:30N 23°41' E 117°54'510.7
2018-Jul-10 10:00N 23°45' E 117°58'510.8
2018-Jul-10 09:31N 23°49' E 118°02'510.8
2018-Jul-10 09:01N 23°53' E 118°06'510.7
2018-Jul-10 08:31N 23°57' E 118°10'611.3
2018-Jul-10 08:00N 24°01' E 118°14'611.9
2018-Jul-10 07:31N 24°06' E 118°18'611.6
2018-Jul-10 07:00N 24°12' E 118°18'714.1
2018-Jul-10 06:31N 24°17' E 118°13'714.0
2018-Jul-10 06:01N 24°22' E 118°08'611.0
2018-Jul-10 05:31N 24°26' E 118°03'2 2.9
2018-Jul-10 04:58N 24°26' E 118°02'0 0.0
2018-Jul-10 04:28N 24°26' E 118°02'0 0.0
2018-Jul-10 03:58N 24°26' E 118°02'0 0.0
2018-Jul-10 03:28N 24°26' E 118°02'0 0.0
2018-Jul-10 02:58N 24°26' E 118°02'0 0.0
2018-Jul-10 02:28N 24°26' E 118°02'0 0.0
2018-Jul-10 01:58N 24°26' E 118°02'0 0.0
2018-Jul-10 01:25N 24°26' E 118°02'0 0.0
2018-Jul-10 00:58N 24°26' E 118°02'0 0.0
2018-Jul-10 00:28N 24°26' E 118°02'0 0.0
2018-Jul-09 23:58N 24°26' E 118°02'0 0.0
2018-Jul-09 23:28N 24°26' E 118°02'0 0.0
2018-Jul-09 22:58N 24°26' E 118°02'0 0.0
2018-Jul-09 22:28N 24°26' E 118°02'0 0.0
2018-Jul-09 21:58N 24°26' E 118°02'0 0.0
2018-Jul-09 21:28N 24°26' E 118°02'0 0.0
2018-Jul-09 20:58N 24°26' E 118°02'0 0.0
2018-Jul-09 20:28N 24°26' E 118°02'0 0.0
2018-Jul-09 19:58N 24°26' E 118°02'0 0.0
2018-Jul-09 19:28N 24°26' E 118°02'0 0.0
2018-Jul-09 18:58N 24°26' E 118°02'0 0.0
2018-Jul-09 18:28N 24°26' E 118°02'0 0.0
2018-Jul-09 17:58N 24°26' E 118°02'0 0.0
2018-Jul-09 17:25N 24°26' E 118°02'0 0.0
2018-Jul-09 16:58N 24°26' E 118°02'0 0.0
2018-Jul-09 16:28N 24°26' E 118°02'0 0.0
2018-Jul-09 15:58N 24°26' E 118°02'0 0.0
2018-Jul-09 15:28N 24°26' E 118°02'0 0.0
2018-Jul-09 14:58N 24°26' E 118°02'0 0.0
2018-Jul-09 14:28N 24°26' E 118°02'0 0.0
2018-Jul-09 13:58N 24°26' E 118°02'0 0.0
2018-Jul-09 13:28N 24°26' E 118°02'0 0.0
2018-Jul-09 12:58N 24°26' E 118°02'0 0.0
2018-Jul-09 12:28N 24°26' E 118°02'0 0.0
2018-Jul-09 11:58N 24°26' E 118°02'0 0.6
2018-Jul-09 11:31N 24°26' E 118°02'4 7.2
2018-Jul-09 11:00N 24°25' E 118°05'5 9.7
2018-Jul-09 10:31N 24°21' E 118°09'815.0
2018-Jul-09 10:00N 24°16' E 118°15'612.7
2018-Jul-09 09:30N 24°13' E 118°21'714.5
2018-Jul-09 09:00N 24°13' E 118°29'715.0
2018-Jul-09 08:30N 24°14' E 118°37'815.8
2018-Jul-09 08:00N 24°17' E 118°45'815.9
2018-Jul-09 07:30N 24°20' E 118°53'815.2
2018-Jul-09 07:00N 24°23' E 119°01'714.9
2018-Jul-09 06:30N 24°26' E 119°08'915.0
2018-Jul-09 05:53N 24°31' E 119°17'615.2
2018-Jul-09 05:28N 24°36' E 119°22'814.8
2018-Jul-09 04:55N 24°41' E 119°28'  
2018-Jul-02 05:08N 36°00' E 120°12'5 0.7
2018-Jul-01 22:04N 36°02' E 120°18'110.6
2018-Jul-01 21:58N 36°02' E 120°17'  

Dump ship's entire track history